sensor_id;sensor_type;location;lat;lon;timestamp;P1;durP1;ratioP1;P2;durP2;ratioP2
60896;SDS011;46749;32.932;-117.130;2023-04-24T00:00:57;2.08;;;0.60;;
60896;SDS011;46749;32.932;-117.130;2023-04-24T00:03:24;1.08;;;0.80;;
60896;SDS011;46749;32.932;-117.130;2023-04-24T00:05:53;2.65;;;0.70;;
60896;SDS011;46749;32.932;-117.130;2023-04-24T00:08:20;1.75;;;0.50;;
60896;SDS011;46749;32.932;-117.130;2023-04-24T00:10:47;3.10;;;0.52;;
60896;SDS011;46749;32.932;-117.130;2023-04-24T00:13:14;1.63;;;0.50;;
60896;SDS011;46749;32.932;-117.130;2023-04-24T00:15:40;2.53;;;0.63;;
60896;SDS011;46749;32.932;-117.130;2023-04-24T00:18:06;1.63;;;0.50;;
60896;SDS011;46749;32.932;-117.130;2023-04-24T00:20:32;3.58;;;0.70;;
60896;SDS011;46749;32.932;-117.130;2023-04-24T00:23:01;2.92;;;0.60;;
60896;SDS011;46749;32.932;-117.130;2023-04-24T00:25:27;0.95;;;0.45;;
60896;SDS011;46749;32.932;-117.130;2023-04-24T00:27:53;3.45;;;0.75;;
60896;SDS011;46749;32.932;-117.130;2023-04-24T00:30:19;1.58;;;0.60;;
60896;SDS011;46749;32.932;-117.130;2023-04-24T00:32:46;2.47;;;0.80;;
60896;SDS011;46749;32.932;-117.130;2023-04-24T00:35:12;2.10;;;0.60;;
60896;SDS011;46749;32.932;-117.130;2023-04-24T00:37:39;2.13;;;0.50;;
60896;SDS011;46749;32.932;-117.130;2023-04-24T00:40:06;2.20;;;0.60;;
60896;SDS011;46749;32.932;-117.130;2023-04-24T00:42:32;2.05;;;0.63;;
60896;SDS011;46749;32.932;-117.130;2023-04-24T00:44:59;2.60;;;0.60;;
60896;SDS011;46749;32.932;-117.130;2023-04-24T00:47:28;2.10;;;0.60;;
60896;SDS011;46749;32.932;-117.130;2023-04-24T00:49:55;2.92;;;0.82;;
60896;SDS011;46749;32.932;-117.130;2023-04-24T00:52:21;2.42;;;0.75;;
60896;SDS011;46749;32.932;-117.130;2023-04-24T00:54:49;3.30;;;0.63;;
60896;SDS011;46749;32.932;-117.130;2023-04-24T00:57:15;1.60;;;0.60;;
60896;SDS011;46749;32.932;-117.130;2023-04-24T00:59:42;2.20;;;0.63;;
60896;SDS011;46749;32.932;-117.130;2023-04-24T01:02:09;2.15;;;0.75;;
60896;SDS011;46749;32.932;-117.130;2023-04-24T01:04:37;3.25;;;0.80;;
60896;SDS011;46749;32.932;-117.130;2023-04-24T01:07:05;2.13;;;0.90;;
60896;SDS011;46749;32.932;-117.130;2023-04-24T01:09:36;2.22;;;0.60;;
60896;SDS011;46749;32.932;-117.130;2023-04-24T01:12:06;1.38;;;0.70;;
60896;SDS011;46749;32.932;-117.130;2023-04-24T01:14:33;2.40;;;0.43;;
60896;SDS011;46749;32.932;-117.130;2023-04-24T01:16:59;1.70;;;0.60;;
60896;SDS011;46749;32.932;-117.130;2023-04-24T01:19:25;3.00;;;0.73;;
60896;SDS011;46749;32.932;-117.130;2023-04-24T01:21:53;2.35;;;0.68;;
60896;SDS011;46749;32.932;-117.130;2023-04-24T01:24:23;1.63;;;0.55;;
60896;SDS011;46749;32.932;-117.130;2023-04-24T01:26:50;1.42;;;0.63;;
60896;SDS011;46749;32.932;-117.130;2023-04-24T01:29:16;1.50;;;0.60;;
60896;SDS011;46749;32.932;-117.130;2023-04-24T01:31:42;1.20;;;0.55;;
60896;SDS011;46749;32.932;-117.130;2023-04-24T01:34:09;1.40;;;0.70;;
60896;SDS011;46749;32.932;-117.130;2023-04-24T01:36:35;2.05;;;0.70;;
60896;SDS011;46749;32.932;-117.130;2023-04-24T01:39:03;3.63;;;0.80;;
60896;SDS011;46749;32.932;-117.130;2023-04-24T01:41:29;1.73;;;0.40;;
60896;SDS011;46749;32.932;-117.130;2023-04-24T01:43:56;1.52;;;0.52;;
60896;SDS011;46749;32.932;-117.130;2023-04-24T01:46:23;2.55;;;0.50;;
60896;SDS011;46749;32.932;-117.130;2023-04-24T01:48:50;2.10;;;0.70;;
60896;SDS011;46749;32.932;-117.130;2023-04-24T01:51:17;2.80;;;0.70;;
60896;SDS011;46749;32.932;-117.130;2023-04-24T01:53:44;1.45;;;0.60;;
60896;SDS011;46749;32.932;-117.130;2023-04-24T01:56:10;3.03;;;0.85;;
60896;SDS011;46749;32.932;-117.130;2023-04-24T01:58:37;3.83;;;0.90;;
60896;SDS011;46749;32.932;-117.130;2023-04-24T02:01:03;1.85;;;0.52;;
60896;SDS011;46749;32.932;-117.130;2023-04-24T02:03:31;2.22;;;0.73;;
60896;SDS011;46749;32.932;-117.130;2023-04-24T02:05:57;2.63;;;0.60;;
60896;SDS011;46749;32.932;-117.130;2023-04-24T02:08:23;2.15;;;0.80;;
60896;SDS011;46749;32.932;-117.130;2023-04-24T02:10:50;1.70;;;0.60;;
60896;SDS011;46749;32.932;-117.130;2023-04-24T02:13:16;3.83;;;0.88;;
60896;SDS011;46749;32.932;-117.130;2023-04-24T02:15:43;2.50;;;0.75;;
60896;SDS011;46749;32.932;-117.130;2023-04-24T02:18:09;5.63;;;0.93;;
60896;SDS011;46749;32.932;-117.130;2023-04-24T02:20:36;2.78;;;0.90;;
60896;SDS011;46749;32.932;-117.130;2023-04-24T02:23:02;2.78;;;0.80;;
60896;SDS011;46749;32.932;-117.130;2023-04-24T02:25:29;3.70;;;0.85;;
60896;SDS011;46749;32.932;-117.130;2023-04-24T02:27:55;3.72;;;1.02;;
60896;SDS011;46749;32.932;-117.130;2023-04-24T02:30:22;6.30;;;1.27;;
60896;SDS011;46749;32.932;-117.130;2023-04-24T02:32:48;2.78;;;0.90;;
60896;SDS011;46749;32.932;-117.130;2023-04-24T02:35:14;5.30;;;0.98;;
60896;SDS011;46749;32.932;-117.130;2023-04-24T02:37:40;2.50;;;1.02;;
60896;SDS011;46749;32.932;-117.130;2023-04-24T02:40:07;4.30;;;0.88;;
60896;SDS011;46749;32.932;-117.130;2023-04-24T02:42:35;4.57;;;0.95;;
60896;SDS011;46749;32.932;-117.130;2023-04-24T02:45:01;4.13;;;1.23;;
60896;SDS011;46749;32.932;-117.130;2023-04-24T02:47:28;2.38;;;0.80;;
60896;SDS011;46749;32.932;-117.130;2023-04-24T02:49:54;2.33;;;0.80;;
60896;SDS011;46749;32.932;-117.130;2023-04-24T02:52:20;4.18;;;0.93;;
60896;SDS011;46749;32.932;-117.130;2023-04-24T02:54:46;3.78;;;0.75;;
60896;SDS011;46749;32.932;-117.130;2023-04-24T02:57:13;3.30;;;0.95;;
60896;SDS011;46749;32.932;-117.130;2023-04-24T02:59:40;4.00;;;0.90;;
60896;SDS011;46749;32.932;-117.130;2023-04-24T03:02:06;5.63;;;1.15;;
60896;SDS011;46749;32.932;-117.130;2023-04-24T03:04:33;5.03;;;1.38;;
60896;SDS011;46749;32.932;-117.130;2023-04-24T03:06:59;2.75;;;1.05;;
60896;SDS011;46749;32.932;-117.130;2023-04-24T03:09:26;4.50;;;1.10;;
60896;SDS011;46749;32.932;-117.130;2023-04-24T03:11:52;3.10;;;0.95;;
60896;SDS011;46749;32.932;-117.130;2023-04-24T03:14:18;3.22;;;1.00;;
60896;SDS011;46749;32.932;-117.130;2023-04-24T03:16:45;4.53;;;0.93;;
60896;SDS011;46749;32.932;-117.130;2023-04-24T03:19:11;8.15;;;1.30;;
60896;SDS011;46749;32.932;-117.130;2023-04-24T03:21:57;2.22;;;0.90;;
60896;SDS011;46749;32.932;-117.130;2023-04-24T03:24:23;4.47;;;0.93;;
60896;SDS011;46749;32.932;-117.130;2023-04-24T03:26:50;3.40;;;0.77;;
60896;SDS011;46749;32.932;-117.130;2023-04-24T03:29:16;3.90;;;1.10;;
60896;SDS011;46749;32.932;-117.130;2023-04-24T03:31:42;4.32;;;1.02;;
60896;SDS011;46749;32.932;-117.130;2023-04-24T03:34:08;4.03;;;1.00;;
60896;SDS011;46749;32.932;-117.130;2023-04-24T03:36:35;4.40;;;1.30;;
60896;SDS011;46749;32.932;-117.130;2023-04-24T03:39:01;4.70;;;1.05;;
60896;SDS011;46749;32.932;-117.130;2023-04-24T03:41:28;2.55;;;0.90;;
60896;SDS011;46749;32.932;-117.130;2023-04-24T03:43:55;4.78;;;0.95;;
60896;SDS011;46749;32.932;-117.130;2023-04-24T03:46:21;3.30;;;0.98;;
60896;SDS011;46749;32.932;-117.130;2023-04-24T03:48:48;4.22;;;1.20;;
60896;SDS011;46749;32.932;-117.130;2023-04-24T03:51:14;3.60;;;0.95;;
60896;SDS011;46749;32.932;-117.130;2023-04-24T03:53:40;2.40;;;1.00;;
60896;SDS011;46749;32.932;-117.130;2023-04-24T03:56:06;3.97;;;0.90;;
60896;SDS011;46749;32.932;-117.130;2023-04-24T03:58:33;3.40;;;0.88;;
60896;SDS011;46749;32.932;-117.130;2023-04-24T04:00:59;2.60;;;1.00;;
60896;SDS011;46749;32.932;-117.130;2023-04-24T04:03:25;4.13;;;1.00;;
60896;SDS011;46749;32.932;-117.130;2023-04-24T04:05:52;3.53;;;1.02;;
60896;SDS011;46749;32.932;-117.130;2023-04-24T04:08:19;5.80;;;1.17;;
60896;SDS011;46749;32.932;-117.130;2023-04-24T04:10:45;3.17;;;1.02;;
60896;SDS011;46749;32.932;-117.130;2023-04-24T04:13:11;4.15;;;1.15;;
60896;SDS011;46749;32.932;-117.130;2023-04-24T04:15:38;3.45;;;1.10;;
60896;SDS011;46749;32.932;-117.130;2023-04-24T04:18:04;3.25;;;1.10;;
60896;SDS011;46749;32.932;-117.130;2023-04-24T04:20:30;3.30;;;0.93;;
60896;SDS011;46749;32.932;-117.130;2023-04-24T04:22:56;3.08;;;1.08;;
60896;SDS011;46749;32.932;-117.130;2023-04-24T04:25:23;2.63;;;0.88;;
60896;SDS011;46749;32.932;-117.130;2023-04-24T04:27:49;5.80;;;1.00;;
60896;SDS011;46749;32.932;-117.130;2023-04-24T04:30:16;2.55;;;1.13;;
60896;SDS011;46749;32.932;-117.130;2023-04-24T04:32:43;3.67;;;1.00;;
60896;SDS011;46749;32.932;-117.130;2023-04-24T04:35:09;4.43;;;1.10;;
60896;SDS011;46749;32.932;-117.130;2023-04-24T04:37:36;3.67;;;1.38;;
60896;SDS011;46749;32.932;-117.130;2023-04-24T04:40:03;4.43;;;1.00;;
60896;SDS011;46749;32.932;-117.130;2023-04-24T04:42:36;4.80;;;1.10;;
60896;SDS011;46749;32.932;-117.130;2023-04-24T04:45:09;3.97;;;0.90;;
60896;SDS011;46749;32.932;-117.130;2023-04-24T04:47:36;3.88;;;0.95;;
60896;SDS011;46749;32.932;-117.130;2023-04-24T04:50:03;4.43;;;1.23;;
60896;SDS011;46749;32.932;-117.130;2023-04-24T04:52:31;4.50;;;1.25;;
60896;SDS011;46749;32.932;-117.130;2023-04-24T04:54:57;4.70;;;1.00;;
60896;SDS011;46749;32.932;-117.130;2023-04-24T04:57:23;6.13;;;1.83;;
60896;SDS011;46749;32.932;-117.130;2023-04-24T04:59:50;3.92;;;1.25;;
60896;SDS011;46749;32.932;-117.130;2023-04-24T05:02:16;3.63;;;1.30;;
60896;SDS011;46749;32.932;-117.130;2023-04-24T05:04:42;4.43;;;1.30;;
60896;SDS011;46749;32.932;-117.130;2023-04-24T05:07:08;3.90;;;1.00;;
60896;SDS011;46749;32.932;-117.130;2023-04-24T05:09:35;4.35;;;1.30;;
60896;SDS011;46749;32.932;-117.130;2023-04-24T05:12:01;2.35;;;0.90;;
60896;SDS011;46749;32.932;-117.130;2023-04-24T05:14:27;3.33;;;1.10;;
60896;SDS011;46749;32.932;-117.130;2023-04-24T05:16:53;4.10;;;1.00;;
60896;SDS011;46749;32.932;-117.130;2023-04-24T05:19:20;3.33;;;0.98;;
60896;SDS011;46749;32.932;-117.130;2023-04-24T05:21:46;4.10;;;1.00;;
60896;SDS011;46749;32.932;-117.130;2023-04-24T05:24:12;2.63;;;0.93;;
60896;SDS011;46749;32.932;-117.130;2023-04-24T05:26:38;4.60;;;1.13;;
60896;SDS011;46749;32.932;-117.130;2023-04-24T05:29:04;4.20;;;1.25;;
60896;SDS011;46749;32.932;-117.130;2023-04-24T05:31:31;4.13;;;1.15;;
60896;SDS011;46749;32.932;-117.130;2023-04-24T05:33:57;4.07;;;1.40;;
60896;SDS011;46749;32.932;-117.130;2023-04-24T05:36:23;4.82;;;1.25;;
60896;SDS011;46749;32.932;-117.130;2023-04-24T05:38:49;3.30;;;1.08;;
60896;SDS011;46749;32.932;-117.130;2023-04-24T05:41:15;3.70;;;1.10;;
60896;SDS011;46749;32.932;-117.130;2023-04-24T05:43:42;3.63;;;0.88;;
60896;SDS011;46749;32.932;-117.130;2023-04-24T05:46:08;5.97;;;1.35;;
60896;SDS011;46749;32.932;-117.130;2023-04-24T05:48:34;3.05;;;0.85;;
60896;SDS011;46749;32.932;-117.130;2023-04-24T05:51:00;4.82;;;1.25;;
60896;SDS011;46749;32.932;-117.130;2023-04-24T05:53:27;4.10;;;1.13;;
60896;SDS011;46749;32.932;-117.130;2023-04-24T05:55:53;3.40;;;1.10;;
60896;SDS011;46749;32.932;-117.130;2023-04-24T05:58:19;4.93;;;1.00;;
60896;SDS011;46749;32.932;-117.130;2023-04-24T06:00:45;4.15;;;1.23;;
60896;SDS011;46749;32.932;-117.130;2023-04-24T06:03:12;2.83;;;1.00;;
60896;SDS011;46749;32.932;-117.130;2023-04-24T06:05:38;4.15;;;1.35;;
60896;SDS011;46749;32.932;-117.130;2023-04-24T06:08:04;2.13;;;1.10;;
60896;SDS011;46749;32.932;-117.130;2023-04-24T06:10:31;5.78;;;1.40;;
60896;SDS011;46749;32.932;-117.130;2023-04-24T06:12:57;4.28;;;1.17;;
60896;SDS011;46749;32.932;-117.130;2023-04-24T06:15:27;4.60;;;1.30;;
60896;SDS011;46749;32.932;-117.130;2023-04-24T06:17:56;2.97;;;1.10;;
60896;SDS011;46749;32.932;-117.130;2023-04-24T06:20:23;4.00;;;1.40;;
60896;SDS011;46749;32.932;-117.130;2023-04-24T06:22:50;2.42;;;1.20;;
60896;SDS011;46749;32.932;-117.130;2023-04-24T06:25:16;3.65;;;1.30;;
60896;SDS011;46749;32.932;-117.130;2023-04-24T06:27:43;3.85;;;1.05;;
60896;SDS011;46749;32.932;-117.130;2023-04-24T06:30:09;4.30;;;1.23;;
60896;SDS011;46749;32.932;-117.130;2023-04-24T06:32:36;5.25;;;1.52;;
60896;SDS011;46749;32.932;-117.130;2023-04-24T06:35:02;3.60;;;1.10;;
60896;SDS011;46749;32.932;-117.130;2023-04-24T06:37:29;4.95;;;1.50;;
60896;SDS011;46749;32.932;-117.130;2023-04-24T06:39:55;4.97;;;1.65;;
60896;SDS011;46749;32.932;-117.130;2023-04-24T06:42:21;5.07;;;1.40;;
60896;SDS011;46749;32.932;-117.130;2023-04-24T06:44:50;3.33;;;1.20;;
60896;SDS011;46749;32.932;-117.130;2023-04-24T06:47:16;4.38;;;1.23;;
60896;SDS011;46749;32.932;-117.130;2023-04-24T06:49:43;4.25;;;1.58;;
60896;SDS011;46749;32.932;-117.130;2023-04-24T06:52:10;3.88;;;1.35;;
60896;SDS011;46749;32.932;-117.130;2023-04-24T06:54:36;4.68;;;1.45;;
60896;SDS011;46749;32.932;-117.130;2023-04-24T06:57:02;4.82;;;1.58;;
60896;SDS011;46749;32.932;-117.130;2023-04-24T06:59:29;2.92;;;1.10;;
60896;SDS011;46749;32.932;-117.130;2023-04-24T07:01:56;3.63;;;1.50;;
60896;SDS011;46749;32.932;-117.130;2023-04-24T07:04:22;4.13;;;1.30;;
60896;SDS011;46749;32.932;-117.130;2023-04-24T07:06:50;6.82;;;1.40;;
60896;SDS011;46749;32.932;-117.130;2023-04-24T07:09:16;3.90;;;1.42;;
60896;SDS011;46749;32.932;-117.130;2023-04-24T07:11:44;1.85;;;1.00;;
60896;SDS011;46749;32.932;-117.130;2023-04-24T07:14:10;2.53;;;1.00;;
60896;SDS011;46749;32.932;-117.130;2023-04-24T07:16:37;4.13;;;1.27;;
60896;SDS011;46749;32.932;-117.130;2023-04-24T07:19:04;4.47;;;1.35;;
60896;SDS011;46749;32.932;-117.130;2023-04-24T07:21:30;4.40;;;1.45;;
60896;SDS011;46749;32.932;-117.130;2023-04-24T07:23:57;4.72;;;1.35;;
60896;SDS011;46749;32.932;-117.130;2023-04-24T07:26:24;4.03;;;1.40;;
60896;SDS011;46749;32.932;-117.130;2023-04-24T07:28:51;4.35;;;1.25;;
60896;SDS011;46749;32.932;-117.130;2023-04-24T07:31:17;3.97;;;1.50;;
60896;SDS011;46749;32.932;-117.130;2023-04-24T07:33:44;3.20;;;1.50;;
60896;SDS011;46749;32.932;-117.130;2023-04-24T07:36:10;4.43;;;1.50;;
60896;SDS011;46749;32.932;-117.130;2023-04-24T07:38:43;3.05;;;1.05;;
60896;SDS011;46749;32.932;-117.130;2023-04-24T07:41:10;4.03;;;1.55;;
60896;SDS011;46749;32.932;-117.130;2023-04-24T07:43:36;4.50;;;1.35;;
60896;SDS011;46749;32.932;-117.130;2023-04-24T07:46:02;4.13;;;1.52;;
60896;SDS011;46749;32.932;-117.130;2023-04-24T07:48:28;4.63;;;1.50;;
60896;SDS011;46749;32.932;-117.130;2023-04-24T07:50:55;4.13;;;1.20;;
60896;SDS011;46749;32.932;-117.130;2023-04-24T07:53:21;3.50;;;1.40;;
60896;SDS011;46749;32.932;-117.130;2023-04-24T07:55:47;3.78;;;1.35;;
60896;SDS011;46749;32.932;-117.130;2023-04-24T07:58:14;4.97;;;1.25;;
60896;SDS011;46749;32.932;-117.130;2023-04-24T08:00:40;4.28;;;1.50;;
60896;SDS011;46749;32.932;-117.130;2023-04-24T08:03:06;3.25;;;1.40;;
60896;SDS011;46749;32.932;-117.130;2023-04-24T08:05:33;3.35;;;1.00;;
60896;SDS011;46749;32.932;-117.130;2023-04-24T08:07:59;4.85;;;1.60;;
60896;SDS011;46749;32.932;-117.130;2023-04-24T08:10:25;3.75;;;1.20;;
60896;SDS011;46749;32.932;-117.130;2023-04-24T08:12:51;3.63;;;1.42;;
60896;SDS011;46749;32.932;-117.130;2023-04-24T08:15:18;4.30;;;1.45;;
60896;SDS011;46749;32.932;-117.130;2023-04-24T08:17:44;4.20;;;1.65;;
60896;SDS011;46749;32.932;-117.130;2023-04-24T08:20:10;5.05;;;1.52;;
60896;SDS011;46749;32.932;-117.130;2023-04-24T08:22:41;4.88;;;1.40;;
60896;SDS011;46749;32.932;-117.130;2023-04-24T08:25:09;3.13;;;1.10;;
60896;SDS011;46749;32.932;-117.130;2023-04-24T08:27:36;4.70;;;1.40;;
60896;SDS011;46749;32.932;-117.130;2023-04-24T08:30:22;3.58;;;1.50;;
60896;SDS011;46749;32.932;-117.130;2023-04-24T08:32:49;4.68;;;1.10;;
60896;SDS011;46749;32.932;-117.130;2023-04-24T08:35:15;4.38;;;1.48;;
60896;SDS011;46749;32.932;-117.130;2023-04-24T08:37:41;4.78;;;1.40;;
60896;SDS011;46749;32.932;-117.130;2023-04-24T08:40:12;5.45;;;1.77;;
60896;SDS011;46749;32.932;-117.130;2023-04-24T08:42:41;4.68;;;1.27;;
60896;SDS011;46749;32.932;-117.130;2023-04-24T08:45:11;5.05;;;1.30;;
60896;SDS011;46749;32.932;-117.130;2023-04-24T08:47:38;3.17;;;1.25;;
60896;SDS011;46749;32.932;-117.130;2023-04-24T08:50:06;3.78;;;1.20;;
60896;SDS011;46749;32.932;-117.130;2023-04-24T08:52:33;4.30;;;1.15;;
60896;SDS011;46749;32.932;-117.130;2023-04-24T08:55:00;5.85;;;1.27;;
60896;SDS011;46749;32.932;-117.130;2023-04-24T08:57:27;3.03;;;1.35;;
60896;SDS011;46749;32.932;-117.130;2023-04-24T08:59:54;3.50;;;1.20;;
60896;SDS011;46749;32.932;-117.130;2023-04-24T09:02:21;3.75;;;1.48;;
60896;SDS011;46749;32.932;-117.130;2023-04-24T09:04:49;5.20;;;1.27;;
60896;SDS011;46749;32.932;-117.130;2023-04-24T09:07:16;3.65;;;1.30;;
60896;SDS011;46749;32.932;-117.130;2023-04-24T09:09:43;4.45;;;1.20;;
60896;SDS011;46749;32.932;-117.130;2023-04-24T09:12:10;4.40;;;1.30;;
60896;SDS011;46749;32.932;-117.130;2023-04-24T09:14:37;3.65;;;1.20;;
60896;SDS011;46749;32.932;-117.130;2023-04-24T09:17:07;5.85;;;1.58;;
60896;SDS011;46749;32.932;-117.130;2023-04-24T09:19:34;4.63;;;1.50;;
60896;SDS011;46749;32.932;-117.130;2023-04-24T09:22:00;3.75;;;1.30;;
60896;SDS011;46749;32.932;-117.130;2023-04-24T09:24:31;4.18;;;1.60;;
60896;SDS011;46749;32.932;-117.130;2023-04-24T09:27:00;4.22;;;1.45;;
60896;SDS011;46749;32.932;-117.130;2023-04-24T09:29:27;3.67;;;1.23;;
60896;SDS011;46749;32.932;-117.130;2023-04-24T09:31:54;5.53;;;1.40;;
60896;SDS011;46749;32.932;-117.130;2023-04-24T09:34:21;4.82;;;1.48;;
60896;SDS011;46749;32.932;-117.130;2023-04-24T09:36:49;4.35;;;1.40;;
60896;SDS011;46749;32.932;-117.130;2023-04-24T09:39:16;2.90;;;1.48;;
60896;SDS011;46749;32.932;-117.130;2023-04-24T09:44:18;5.70;;;1.50;;
60896;SDS011;46749;32.932;-117.130;2023-04-24T09:46:49;3.15;;;1.20;;
60896;SDS011;46749;32.932;-117.130;2023-04-24T09:49:21;4.28;;;1.23;;
60896;SDS011;46749;32.932;-117.130;2023-04-24T09:51:52;4.28;;;1.20;;
60896;SDS011;46749;32.932;-117.130;2023-04-24T09:54:28;4.07;;;1.10;;
60896;SDS011;46749;32.932;-117.130;2023-04-24T09:56:55;4.18;;;1.55;;
60896;SDS011;46749;32.932;-117.130;2023-04-24T09:59:21;4.38;;;1.60;;
60896;SDS011;46749;32.932;-117.130;2023-04-24T10:01:48;5.20;;;1.60;;
60896;SDS011;46749;32.932;-117.130;2023-04-24T10:04:22;6.78;;;1.48;;
60896;SDS011;46749;32.932;-117.130;2023-04-24T10:06:51;5.80;;;1.70;;
60896;SDS011;46749;32.932;-117.130;2023-04-24T10:09:19;4.72;;;1.30;;
60896;SDS011;46749;32.932;-117.130;2023-04-24T10:11:48;6.03;;;1.40;;
60896;SDS011;46749;32.932;-117.130;2023-04-24T10:14:17;4.15;;;1.38;;
60896;SDS011;46749;32.932;-117.130;2023-04-24T10:16:46;3.08;;;1.02;;
60896;SDS011;46749;32.932;-117.130;2023-04-24T10:19:12;4.95;;;1.38;;
60896;SDS011;46749;32.932;-117.130;2023-04-24T10:21:41;5.72;;;1.77;;
60896;SDS011;46749;32.932;-117.130;2023-04-24T10:24:12;5.05;;;1.33;;
60896;SDS011;46749;32.932;-117.130;2023-04-24T10:26:39;4.38;;;1.30;;
60896;SDS011;46749;32.932;-117.130;2023-04-24T10:29:06;3.67;;;1.05;;
60896;SDS011;46749;32.932;-117.130;2023-04-24T10:31:35;7.65;;;1.77;;
60896;SDS011;46749;32.932;-117.130;2023-04-24T10:34:04;4.35;;;1.30;;
60896;SDS011;46749;32.932;-117.130;2023-04-24T10:36:34;4.93;;;1.45;;
60896;SDS011;46749;32.932;-117.130;2023-04-24T10:39:06;6.88;;;2.25;;
60896;SDS011;46749;32.932;-117.130;2023-04-24T10:41:39;6.10;;;1.48;;
60896;SDS011;46749;32.932;-117.130;2023-04-24T10:44:10;4.93;;;2.35;;
60896;SDS011;46749;32.932;-117.130;2023-04-24T10:46:39;6.72;;;1.83;;
60896;SDS011;46749;32.932;-117.130;2023-04-24T10:49:09;4.80;;;1.38;;
60896;SDS011;46749;32.932;-117.130;2023-04-24T10:51:45;4.25;;;1.38;;
60896;SDS011;46749;32.932;-117.130;2023-04-24T10:59:44;5.20;;;1.60;;
60896;SDS011;46749;32.932;-117.130;2023-04-24T11:02:14;5.20;;;1.70;;
60896;SDS011;46749;32.932;-117.130;2023-04-24T11:04:41;7.35;;;1.63;;
60896;SDS011;46749;32.932;-117.130;2023-04-24T11:07:11;2.97;;;1.45;;
60896;SDS011;46749;32.932;-117.130;2023-04-24T11:09:38;6.88;;;1.60;;
60896;SDS011;46749;32.932;-117.130;2023-04-24T11:12:09;4.90;;;1.60;;
60896;SDS011;46749;32.932;-117.130;2023-04-24T11:17:37;4.53;;;1.40;;
60896;SDS011;46749;32.932;-117.130;2023-04-24T11:20:10;6.95;;;1.63;;
60896;SDS011;46749;32.932;-117.130;2023-04-24T11:22:38;3.13;;;1.40;;
60896;SDS011;46749;32.932;-117.130;2023-04-24T11:25:08;8.43;;;2.38;;
60896;SDS011;46749;32.932;-117.130;2023-04-24T11:27:43;4.22;;;1.38;;
60896;SDS011;46749;32.932;-117.130;2023-04-24T11:30:16;5.43;;;1.50;;
60896;SDS011;46749;32.932;-117.130;2023-04-24T11:32:46;6.18;;;1.42;;
60896;SDS011;46749;32.932;-117.130;2023-04-24T11:35:16;3.88;;;1.58;;
60896;SDS011;46749;32.932;-117.130;2023-04-24T11:37:48;4.22;;;1.55;;
60896;SDS011;46749;32.932;-117.130;2023-04-24T11:40:15;4.70;;;1.77;;
60896;SDS011;46749;32.932;-117.130;2023-04-24T11:42:43;5.18;;;1.63;;
60896;SDS011;46749;32.932;-117.130;2023-04-24T11:45:12;5.30;;;1.45;;
60896;SDS011;46749;32.932;-117.130;2023-04-24T11:47:38;6.18;;;1.60;;
60896;SDS011;46749;32.932;-117.130;2023-04-24T11:50:09;4.55;;;1.50;;
60896;SDS011;46749;32.932;-117.130;2023-04-24T11:52:41;5.78;;;1.83;;
60896;SDS011;46749;32.932;-117.130;2023-04-24T11:57:51;4.50;;;1.33;;
60896;SDS011;46749;32.932;-117.130;2023-04-24T12:00:31;3.85;;;1.30;;
60896;SDS011;46749;32.932;-117.130;2023-04-24T12:03:07;5.70;;;1.80;;
60896;SDS011;46749;32.932;-117.130;2023-04-24T12:05:37;6.30;;;2.20;;
60896;SDS011;46749;32.932;-117.130;2023-04-24T12:08:04;3.35;;;1.15;;
60896;SDS011;46749;32.932;-117.130;2023-04-24T12:10:31;7.03;;;1.80;;
60896;SDS011;46749;32.932;-117.130;2023-04-24T12:12:58;7.75;;;1.63;;
60896;SDS011;46749;32.932;-117.130;2023-04-24T12:15:25;4.53;;;1.55;;
60896;SDS011;46749;32.932;-117.130;2023-04-24T12:17:53;6.20;;;1.90;;
60896;SDS011;46749;32.932;-117.130;2023-04-24T12:20:24;6.22;;;1.40;;
60896;SDS011;46749;32.932;-117.130;2023-04-24T12:22:53;6.63;;;2.03;;
60896;SDS011;46749;32.932;-117.130;2023-04-24T12:25:24;5.43;;;1.40;;
60896;SDS011;46749;32.932;-117.130;2023-04-24T12:30:30;4.35;;;1.67;;
60896;SDS011;46749;32.932;-117.130;2023-04-24T12:32:58;4.13;;;1.40;;
60896;SDS011;46749;32.932;-117.130;2023-04-24T12:35:29;8.70;;;2.05;;
60896;SDS011;46749;32.932;-117.130;2023-04-24T12:38:07;6.20;;;1.65;;
60896;SDS011;46749;32.932;-117.130;2023-04-24T12:40:35;4.00;;;1.23;;
60896;SDS011;46749;32.932;-117.130;2023-04-24T12:43:02;3.72;;;1.30;;
60896;SDS011;46749;32.932;-117.130;2023-04-24T12:45:38;6.93;;;1.65;;
60896;SDS011;46749;32.932;-117.130;2023-04-24T12:48:04;4.65;;;1.50;;
60896;SDS011;46749;32.932;-117.130;2023-04-24T12:50:30;6.43;;;1.83;;
60896;SDS011;46749;32.932;-117.130;2023-04-24T12:52:57;6.32;;;1.80;;
60896;SDS011;46749;32.932;-117.130;2023-04-24T12:55:23;5.55;;;1.50;;
60896;SDS011;46749;32.932;-117.130;2023-04-24T12:57:49;5.70;;;1.48;;
60896;SDS011;46749;32.932;-117.130;2023-04-24T13:00:17;5.68;;;1.73;;
60896;SDS011;46749;32.932;-117.130;2023-04-24T13:02:43;5.82;;;1.30;;
60896;SDS011;46749;32.932;-117.130;2023-04-24T13:05:09;4.22;;;1.50;;
60896;SDS011;46749;32.932;-117.130;2023-04-24T13:07:36;5.70;;;1.75;;
60896;SDS011;46749;32.932;-117.130;2023-04-24T13:10:03;5.90;;;1.50;;
60896;SDS011;46749;32.932;-117.130;2023-04-24T13:12:29;5.85;;;1.40;;
60896;SDS011;46749;32.932;-117.130;2023-04-24T13:14:55;4.50;;;1.30;;
60896;SDS011;46749;32.932;-117.130;2023-04-24T13:17:22;5.45;;;1.30;;
60896;SDS011;46749;32.932;-117.130;2023-04-24T13:19:49;4.10;;;1.35;;
60896;SDS011;46749;32.932;-117.130;2023-04-24T13:22:16;4.72;;;1.60;;
60896;SDS011;46749;32.932;-117.130;2023-04-24T13:24:46;5.90;;;1.80;;
60896;SDS011;46749;32.932;-117.130;2023-04-24T13:27:16;4.28;;;1.50;;
60896;SDS011;46749;32.932;-117.130;2023-04-24T13:29:43;4.60;;;1.40;;
60896;SDS011;46749;32.932;-117.130;2023-04-24T13:32:10;5.88;;;1.55;;
60896;SDS011;46749;32.932;-117.130;2023-04-24T13:34:36;4.72;;;1.45;;
60896;SDS011;46749;32.932;-117.130;2023-04-24T13:37:03;3.85;;;1.40;;
60896;SDS011;46749;32.932;-117.130;2023-04-24T13:39:30;5.00;;;1.23;;
60896;SDS011;46749;32.932;-117.130;2023-04-24T13:41:56;3.40;;;1.40;;
60896;SDS011;46749;32.932;-117.130;2023-04-24T13:44:23;8.82;;;1.88;;
60896;SDS011;46749;32.932;-117.130;2023-04-24T13:46:51;3.92;;;1.70;;
60896;SDS011;46749;32.932;-117.130;2023-04-24T13:49:20;5.53;;;1.80;;
60896;SDS011;46749;32.932;-117.130;2023-04-24T13:51:46;3.67;;;1.40;;
60896;SDS011;46749;32.932;-117.130;2023-04-24T13:54:13;4.15;;;1.63;;
60896;SDS011;46749;32.932;-117.130;2023-04-24T13:56:40;5.50;;;1.30;;
60896;SDS011;46749;32.932;-117.130;2023-04-24T13:59:06;6.93;;;1.85;;
60896;SDS011;46749;32.932;-117.130;2023-04-24T14:01:33;4.32;;;1.30;;
60896;SDS011;46749;32.932;-117.130;2023-04-24T14:04:00;4.55;;;1.45;;
60896;SDS011;46749;32.932;-117.130;2023-04-24T14:06:26;4.63;;;1.98;;
60896;SDS011;46749;32.932;-117.130;2023-04-24T14:08:52;6.03;;;1.42;;
60896;SDS011;46749;32.932;-117.130;2023-04-24T14:11:18;5.35;;;1.38;;
60896;SDS011;46749;32.932;-117.130;2023-04-24T14:13:45;5.60;;;1.67;;
60896;SDS011;46749;32.932;-117.130;2023-04-24T14:16:12;2.80;;;1.38;;
60896;SDS011;46749;32.932;-117.130;2023-04-24T14:18:39;4.05;;;1.50;;
60896;SDS011;46749;32.932;-117.130;2023-04-24T14:21:05;4.47;;;1.90;;
60896;SDS011;46749;32.932;-117.130;2023-04-24T14:23:32;4.18;;;1.48;;
60896;SDS011;46749;32.932;-117.130;2023-04-24T14:25:58;2.40;;;1.02;;